Here is the Quick Look data you requested

The Data originates at the National Weather Service, and is made available here by the UAlbany Department of Atmospheric and Environmental Sciences

Surface Observations

KPHL 190754Z 33011KT 10SM FEW280 M01/M09 A3046 RMK AO2 SLP315 T10111094 $=
KTHV 190753Z AUTO 33006KT 10SM CLR M03/M09 A3047 RMK AO2 SLP327 T10331094=
KLNS 190753Z AUTO 32007KT 10SM CLR M02/M09 A3046 RMK AO2 SLP317 T10171089=
KCXY 190756Z AUTO 31008KT 10SM CLR M03/M11 A3049 RMK AO2 SLP328 T10281111=
KMDT 190756Z 32012KT 10SM FEW038 M03/M10 A3048 RMK AO2 SLP325 T10281100=
KMIV 190754Z AUTO 30003KT 10SM BKN041 M02/M08 A3045 RMK AO2 SLP310 T10171078
 TSNO=
KTTN 190753Z AUTO 34012G17KT 10SM CLR M03/M11 A3044 RMK AO2 SLP305 T10281111=
KRDG 190754Z AUTO 33013KT 10SM CLR M03/M09 A3045 RMK AO2 SLP321 T10331094=
KDCA 190752Z 35010KT 10SM FEW160 01/M07 A3049 RMK AO2 SLP324 T00061067=
KADW 190756Z AUTO 32011G19KT 10SM CLR 00/M07 A3046 RMK AO2 SLP324 T10031071 $=
KBWI 190754Z 34003KT 10SM SCT250 M01/M08 A3048 RMK AO2 SLP322 T10111078=
KDMH 190754Z AUTO 00/M09 A3048 RMK AO1 SLP320 T00001089=
KHGR 190753Z AUTO 32012KT 10SM CLR M03/M11 A3048 RMK AO2 SLP340 T10331106=
KNHK 190752Z AUTO 35012KT 10SM CLR 02/M06 A3047 RMK AO2 SLP319 T00171056 $=
KOXB 190753Z AUTO 33009KT 10SM CLR 01/M06 A3046 RMK AO2 SLP313 T00061061=
KSBY 190754Z AUTO 32008KT 10SM CLR 00/M06 A3046 RMK AO2 SLP317 T00001056 $=
KDOV 190756Z AUTO 31011KT 10SM FEW044 00/M08 A3046 RMK AO2 SLP318 T10011078 $=
KGED 190754Z AUTO 32006KT 10SM CLR 02/M07 A3046 RMK AO2 SLP316 T00171072 $=
KILG 190751Z AUTO 33012KT 10SM CLR M01/M08 A3046 RMK AO2 SLP316 T10111083=